Marshallton, Pennsylvania
Current Conditions -  °F | °C
As of 1:53 AM on Tuesday 21 Oct 2014 (Local Time) from KSEG Reporting Station
Overcast Overcast  
Wind Chill: 52°   Ceiling: 9000
Heat Index: 52°   Visibility: 10mi
Dew Point: 44°   Wind: 0mph
Humidity: 74%   Direction: NA
Pressure: 29.88"   Gusts: NA
Location:  40.7842°N, 76.5797°W
Report Text: KSEG 210553Z AUTO 00000KT 10SM FEW055 BKN090 OVC110 11/07 A2988 RMK AO2 RAE07 SLP119 P0000 60000 T01110067 10139 20100 58013
Loading
Personal Weather Stations






























Interactive Weather Map
Tropical Storm Tracking
New forecast layout! Learn more

10-Day Weather Forecast

Advertisements
Track Severe Weather on mobile